createdAt,value
2023-04-09T00:02:52.356Z,102293.84
2023-04-09T00:07:54.308Z,102297.72
2023-04-09T00:12:56.054Z,102293.94
2023-04-09T00:17:57.936Z,102290.59
2023-04-09T00:22:59.795Z,102290.97
2023-04-09T00:28:01.866Z,102291.69
2023-04-09T00:33:03.764Z,102293.56
2023-04-09T00:38:05.586Z,102284.28
2023-04-09T00:43:07.329Z,102287.88
2023-04-09T00:48:09.202Z,102286.59
2023-04-09T00:53:12.919Z,102282.34
2023-04-09T00:58:15.364Z,102286.50
2023-04-09T01:03:17.351Z,102293.06
2023-04-09T01:09:11.541Z,102293.53
2023-04-09T01:14:37.693Z,102289.28
2023-04-09T01:20:08.492Z,102287.38
2023-04-09T01:25:58.155Z,102291.63
2023-04-09T01:31:09.254Z,102287.75
2023-04-09T01:36:12.684Z,102291.75
2023-04-09T01:41:21.725Z,102295.75
2023-04-09T01:46:25.961Z,102290.94
2023-04-09T01:51:28.388Z,102299.91
2023-04-09T01:56:41.845Z,102298.97
2023-04-09T02:01:58.254Z,102304.88
2023-04-09T02:07:38.052Z,102299.91
2023-04-09T02:12:48.745Z,102303.22
2023-04-09T02:17:50.779Z,102305.09
2023-04-09T02:22:52.625Z,102302.88
2023-04-09T02:27:54.443Z,102303.56
2023-04-09T02:32:56.169Z,102311.25
2023-04-09T02:37:57.886Z,102302.44
2023-04-09T02:42:59.647Z,102306.66
2023-04-09T02:48:02.019Z,102307.75
2023-04-09T02:53:04.051Z,102300.44
2023-04-09T02:58:05.901Z,102311.97
2023-04-09T03:03:07.858Z,102307.03
2023-04-09T03:08:09.642Z,102306.19
2023-04-09T03:13:11.370Z,102303.09
2023-04-09T03:18:13.121Z,102299.16
2023-04-09T03:23:15.295Z,102310.69
2023-04-09T03:28:17.037Z,102309.59
2023-04-09T03:33:19.603Z,102304.06
2023-04-09T03:38:21.507Z,102309.94
2023-04-09T03:43:23.278Z,102303.75
2023-04-09T03:48:25.177Z,102299.34
2023-04-09T03:53:26.895Z,102299.84
2023-04-09T03:58:28.700Z,102298.13
2023-04-09T04:03:30.855Z,102298.31
2023-04-09T04:08:32.723Z,102300.97
2023-04-09T04:13:34.569Z,102305.03
2023-04-09T04:18:37.431Z,102309.34
2023-04-09T04:23:39.157Z,102307.22
2023-04-09T04:28:41.406Z,102312.22
2023-04-09T04:33:43.399Z,102312.47
2023-04-09T04:38:45.225Z,102314.25
2023-04-09T04:43:47.766Z,102324.81
2023-04-09T04:48:49.603Z,102325.28
2023-04-09T04:53:51.404Z,102329.22
2023-04-09T04:58:53.372Z,102327.38
2023-04-09T05:03:55.653Z,102328.69
2023-04-09T05:08:58.166Z,102338.97
2023-04-09T05:13:59.922Z,102336.31
2023-04-09T05:19:01.717Z,102335.44
2023-04-09T05:24:03.813Z,102330.28
2023-04-09T05:29:05.660Z,102338.81
2023-04-09T05:34:07.448Z,102339.78
2023-04-09T05:39:09.346Z,102340.03
2023-04-09T05:44:14.097Z,102335.78
2023-04-09T05:49:16.177Z,102341.22
2023-04-09T05:54:18.095Z,102352.19
2023-04-09T05:59:19.857Z,102349.81
2023-04-09T06:04:21.949Z,102351.22
2023-04-09T06:09:23.788Z,102349.34
2023-04-09T06:14:25.603Z,102343.22
2023-04-09T06:19:27.845Z,102350.44
2023-04-09T06:24:33.215Z,102356.34
2023-04-09T06:29:35.034Z,102345.63
2023-04-09T06:34:36.755Z,102345.22
2023-04-09T06:39:40.373Z,102347.63
2023-04-09T06:44:44.268Z,102357.38
2023-04-09T06:49:46.120Z,102354.56
2023-04-09T06:54:47.927Z,102350.97
2023-04-09T06:59:49.680Z,102362.44
2023-04-09T07:04:51.529Z,102363.34
2023-04-09T07:09:53.929Z,102362.38
2023-04-09T07:15:06.146Z,102370.38
2023-04-09T07:20:08.590Z,102377.75
2023-04-09T07:25:10.683Z,102372.00
2023-04-09T07:30:12.599Z,102373.09
2023-04-09T07:35:14.412Z,102370.75
2023-04-09T07:40:16.427Z,102372.88
2023-04-09T07:45:18.677Z,102373.94
2023-04-09T07:50:20.849Z,102380.78
2023-04-09T07:55:22.819Z,102377.94
2023-04-09T08:00:24.951Z,102387.78
2023-04-09T08:05:27.093Z,102388.25
2023-04-09T08:10:28.822Z,102384.75
2023-04-09T08:15:30.671Z,102382.97
2023-04-09T08:20:33.030Z,102400.72
2023-04-09T08:25:34.759Z,102390.50
2023-04-09T08:30:36.618Z,102399.34
2023-04-09T08:35:40.375Z,102399.56
2023-04-09T08:40:42.223Z,102394.19
2023-04-09T08:45:44.230Z,102400.22
2023-04-09T08:50:46.578Z,102404.13
2023-04-09T08:55:48.786Z,102407.00
2023-04-09T09:00:50.762Z,102403.63
2023-04-09T09:05:52.481Z,102392.88
2023-04-09T09:10:54.261Z,102390.69
2023-04-09T09:16:14.620Z,102385.22
2023-04-09T09:21:19.408Z,102380.03
2023-04-09T09:26:32.059Z,102387.59
2023-04-09T09:31:51.683Z,102391.72
2023-04-09T09:36:53.626Z,102395.03
2023-04-09T09:42:08.448Z,102391.03
2023-04-09T09:47:16.091Z,102379.63
2023-04-09T09:52:27.214Z,102372.16
2023-04-09T09:57:32.531Z,102362.78
2023-04-09T10:02:48.145Z,102365.84
2023-04-09T10:07:50.237Z,102354.19
2023-04-09T10:12:52.689Z,102356.13
2023-04-09T10:17:56.670Z,102352.56
2023-04-09T10:23:09.473Z,102354.38
2023-04-09T10:28:18.928Z,102351.84
2023-04-09T10:33:27.909Z,102353.69
2023-04-09T10:38:48.756Z,102358.25
2023-04-09T10:43:50.844Z,102359.13
2023-04-09T10:49:22.271Z,102355.44
2023-04-09T10:54:33.434Z,102351.38
2023-04-09T10:59:50.455Z,102353.22
2023-04-09T11:05:24.864Z,102355.16
2023-04-09T11:10:26.758Z,102341.53
2023-04-09T11:15:29.167Z,102342.22
2023-04-09T11:20:33.660Z,102346.16
2023-04-09T11:25:35.621Z,102339.06
2023-04-09T11:30:37.562Z,102350.25
2023-04-09T11:35:39.400Z,102346.28
2023-04-09T11:40:48.694Z,102338.16
2023-04-09T11:45:51.556Z,102326.25
2023-04-09T11:50:53.798Z,102311.25
2023-04-09T11:55:56.267Z,102310.78
2023-04-09T12:01:01.204Z,102311.59
2023-04-09T12:06:06.089Z,102309.97
2023-04-09T12:11:13.272Z,102307.31
2023-04-09T12:16:20.543Z,102299.81
2023-04-09T12:21:27.080Z,102293.91
2023-04-09T12:26:28.846Z,102293.25
2023-04-09T12:31:30.781Z,102285.53
2023-04-09T12:36:32.687Z,102294.09
2023-04-09T12:41:34.602Z,102285.00
2023-04-09T12:46:37.112Z,102278.56
2023-04-09T12:51:39.717Z,102271.38
2023-04-09T12:56:42.364Z,102263.13
2023-04-09T13:01:44.227Z,102261.31
2023-04-09T13:06:46.585Z,102259.84
2023-04-09T13:11:48.320Z,102263.22
2023-04-09T13:16:52.358Z,102259.66
2023-04-09T13:21:54.156Z,102254.22
2023-04-09T13:26:55.915Z,102252.00
2023-04-09T13:31:58.805Z,102240.47
2023-04-09T13:37:02.422Z,102238.31
2023-04-09T13:42:12.628Z,102235.25
2023-04-09T13:47:17.694Z,102231.88
2023-04-09T13:52:19.640Z,102230.28
2023-04-09T13:57:21.638Z,102214.41
2023-04-09T14:02:23.708Z,102213.78
2023-04-09T14:07:25.883Z,102211.69
2023-04-09T14:12:27.615Z,102202.72
2023-04-09T14:17:29.434Z,102201.47
2023-04-09T14:22:31.355Z,102200.22
2023-04-09T14:27:33.159Z,102203.66
2023-04-09T14:32:34.971Z,102192.25
2023-04-09T14:37:37.612Z,102196.66
2023-04-09T14:42:41.464Z,102197.03
2023-04-09T14:47:43.263Z,102181.91
2023-04-09T14:52:48.419Z,102180.00
2023-04-09T14:57:50.246Z,102175.56
2023-04-09T15:02:52.216Z,102174.03
2023-04-09T15:07:55.841Z,102169.00
2023-04-09T15:12:57.621Z,102173.84
2023-04-09T15:18:05.491Z,102170.53
2023-04-09T15:23:07.411Z,102175.47
2023-04-09T15:28:09.258Z,102175.47
2023-04-09T15:33:12.003Z,102174.47
2023-04-09T15:38:13.766Z,102169.72
2023-04-09T15:43:15.491Z,102165.84
2023-04-09T15:48:19.111Z,102172.97
2023-04-09T15:53:23.753Z,102165.09
2023-04-09T15:58:25.878Z,102175.97
2023-04-09T16:03:27.763Z,102174.56
2023-04-09T16:08:29.532Z,102170.00
2023-04-09T16:13:31.389Z,102171.00
2023-04-09T16:18:34.047Z,102174.44
2023-04-09T16:23:35.841Z,102172.16
2023-04-09T16:28:37.744Z,102180.53
2023-04-09T16:33:39.486Z,102178.16
2023-04-09T16:38:41.489Z,102180.66
2023-04-09T16:43:43.260Z,102176.75
2023-04-09T16:48:45.233Z,102176.72
2023-04-09T16:53:47.067Z,102170.66
2023-04-09T16:58:49.164Z,102167.88
2023-04-09T17:03:51.406Z,102171.50
2023-04-09T17:08:53.611Z,102166.78
2023-04-09T17:13:55.643Z,102176.00
2023-04-09T17:18:57.713Z,102181.25
2023-04-09T17:24:01.742Z,102191.25
2023-04-09T17:29:03.557Z,102182.25
2023-04-09T17:34:05.425Z,102191.75
2023-04-09T17:39:07.202Z,102186.19
2023-04-09T17:44:09.037Z,102193.28
2023-04-09T17:49:10.854Z,102188.69
2023-04-09T17:54:13.068Z,102197.03
2023-04-09T17:59:14.860Z,102194.03
2023-04-09T18:04:16.844Z,102197.13
2023-04-09T18:09:19.189Z,102195.63
2023-04-09T18:14:20.984Z,102189.88
2023-04-09T18:19:22.719Z,102189.84
2023-04-09T18:24:26.218Z,102190.84
2023-04-09T18:29:31.399Z,102186.69
2023-04-09T18:34:33.263Z,102198.16
2023-04-09T18:39:35.105Z,102201.22
2023-04-09T18:44:37.600Z,102217.09
2023-04-09T18:49:39.387Z,102216.91
2023-04-09T18:54:41.384Z,102220.16
2023-04-09T18:59:45.234Z,102217.81
2023-04-09T19:04:47.706Z,102218.44
2023-04-09T19:09:49.614Z,102223.31
2023-04-09T19:14:51.614Z,102221.47
2023-04-09T19:19:53.432Z,102230.97
2023-04-09T19:24:55.444Z,102226.19
2023-04-09T19:29:58.785Z,102226.00
2023-04-09T19:35:00.907Z,102226.47
2023-04-09T19:40:04.659Z,102229.53
2023-04-09T19:45:07.505Z,102231.22
2023-04-09T19:50:10.142Z,102225.06
2023-04-09T19:55:12.067Z,102230.06
2023-04-09T20:00:17.688Z,102230.38
2023-04-09T20:05:21.034Z,102229.72
2023-04-09T20:10:22.887Z,102233.16
2023-04-09T20:15:24.875Z,102239.78
2023-04-09T20:20:27.174Z,102237.03
2023-04-09T20:25:34.988Z,102251.00
2023-04-09T20:30:36.889Z,102257.75
2023-04-09T20:35:38.661Z,102242.16
2023-04-09T20:40:40.482Z,102233.13
2023-04-09T20:45:42.483Z,102234.38
2023-04-09T20:50:44.593Z,102232.19
2023-04-09T20:55:46.448Z,102232.34
2023-04-09T21:00:49.004Z,102231.84
2023-04-09T21:05:52.070Z,102235.03
2023-04-09T21:10:54.959Z,102230.25
2023-04-09T21:16:00.392Z,102229.31
2023-04-09T21:21:07.531Z,102221.94
2023-04-09T21:26:11.313Z,102227.28
2023-04-09T21:31:13.119Z,102224.97
2023-04-09T21:36:15.749Z,102215.63
2023-04-09T21:41:17.528Z,102220.34
2023-04-09T21:46:19.361Z,102214.56
2023-04-09T21:51:21.172Z,102220.59
2023-04-09T21:56:23.524Z,102221.06
2023-04-09T22:01:29.454Z,102225.34
2023-04-09T22:06:32.162Z,102234.16
2023-04-09T22:11:34.356Z,102230.47
2023-04-09T22:16:36.186Z,102233.78
2023-04-09T22:21:38.069Z,102236.97
2023-04-09T22:26:42.550Z,102231.91
2023-04-09T22:31:45.413Z,102231.09
2023-04-09T22:36:47.380Z,102230.78
2023-04-09T22:41:49.127Z,102229.44
2023-04-09T22:46:51.334Z,102249.59
2023-04-09T22:51:53.445Z,102255.09
2023-04-09T22:56:56.697Z,102255.22
2023-04-09T23:01:58.551Z,102253.44
2023-04-09T23:07:00.793Z,102251.25
2023-04-09T23:12:02.834Z,102241.22
2023-04-09T23:17:04.679Z,102242.19
2023-04-09T23:22:07.099Z,102237.66
2023-04-09T23:27:08.869Z,102239.72
2023-04-09T23:32:10.656Z,102248.47
2023-04-09T23:37:12.464Z,102245.19
2023-04-09T23:42:14.312Z,102241.22
2023-04-09T23:47:16.380Z,102233.47
2023-04-09T23:52:18.174Z,102242.06
2023-04-09T23:57:19.952Z,102233.97
